sensor_id;sensor_type;location;lat;lon;timestamp;P1;durP1;ratioP1;P2;durP2;ratioP2
75054;SDS011;63636;44.746;10.488;2023-05-20T00:01:05;10.18;;;6.82;;
75054;SDS011;63636;44.746;10.488;2023-05-20T00:03:31;11.65;;;7.10;;
75054;SDS011;63636;44.746;10.488;2023-05-20T00:05:57;12.23;;;7.35;;
75054;SDS011;63636;44.746;10.488;2023-05-20T00:08:22;11.20;;;7.28;;
75054;SDS011;63636;44.746;10.488;2023-05-20T00:10:48;11.57;;;7.15;;
75054;SDS011;63636;44.746;10.488;2023-05-20T00:13:13;13.23;;;7.57;;
75054;SDS011;63636;44.746;10.488;2023-05-20T00:15:39;13.32;;;7.63;;
75054;SDS011;63636;44.746;10.488;2023-05-20T00:18:04;12.73;;;7.70;;
75054;SDS011;63636;44.746;10.488;2023-05-20T00:20:31;12.27;;;7.05;;
75054;SDS011;63636;44.746;10.488;2023-05-20T00:22:56;13.52;;;7.88;;
75054;SDS011;63636;44.746;10.488;2023-05-20T00:25:22;11.80;;;7.60;;
75054;SDS011;63636;44.746;10.488;2023-05-20T00:27:47;12.60;;;7.72;;
75054;SDS011;63636;44.746;10.488;2023-05-20T00:30:13;12.52;;;8.13;;
75054;SDS011;63636;44.746;10.488;2023-05-20T00:32:39;11.27;;;7.78;;
75054;SDS011;63636;44.746;10.488;2023-05-20T00:35:05;13.43;;;8.13;;
75054;SDS011;63636;44.746;10.488;2023-05-20T00:37:31;11.13;;;7.85;;
75054;SDS011;63636;44.746;10.488;2023-05-20T00:39:56;12.73;;;8.05;;
75054;SDS011;63636;44.746;10.488;2023-05-20T00:42:25;13.18;;;8.25;;
75054;SDS011;63636;44.746;10.488;2023-05-20T00:44:51;13.30;;;8.45;;
75054;SDS011;63636;44.746;10.488;2023-05-20T00:47:18;11.88;;;8.02;;
75054;SDS011;63636;44.746;10.488;2023-05-20T00:49:44;11.90;;;7.93;;
75054;SDS011;63636;44.746;10.488;2023-05-20T00:52:10;12.15;;;8.25;;
75054;SDS011;63636;44.746;10.488;2023-05-20T00:54:37;11.93;;;8.20;;
75054;SDS011;63636;44.746;10.488;2023-05-20T00:57:03;12.70;;;8.18;;
75054;SDS011;63636;44.746;10.488;2023-05-20T00:59:30;13.93;;;8.25;;
75054;SDS011;63636;44.746;10.488;2023-05-20T01:01:56;11.85;;;8.38;;
75054;SDS011;63636;44.746;10.488;2023-05-20T01:04:21;14.25;;;8.50;;
75054;SDS011;63636;44.746;10.488;2023-05-20T01:06:47;12.50;;;8.57;;
75054;SDS011;63636;44.746;10.488;2023-05-20T01:09:13;13.00;;;8.70;;
75054;SDS011;63636;44.746;10.488;2023-05-20T01:12:02;12.70;;;8.50;;
75054;SDS011;63636;44.746;10.488;2023-05-20T01:14:26;13.32;;;9.05;;
75054;SDS011;63636;44.746;10.488;2023-05-20T01:16:53;14.10;;;9.30;;
75054;SDS011;63636;44.746;10.488;2023-05-20T01:19:41;12.52;;;8.80;;
75054;SDS011;63636;44.746;10.488;2023-05-20T01:22:08;14.35;;;9.30;;
75054;SDS011;63636;44.746;10.488;2023-05-20T01:24:45;13.45;;;9.27;;
75054;SDS011;63636;44.746;10.488;2023-05-20T01:27:18;14.00;;;9.25;;
75054;SDS011;63636;44.746;10.488;2023-05-20T01:29:50;12.88;;;8.80;;
75054;SDS011;63636;44.746;10.488;2023-05-20T01:32:18;15.07;;;9.68;;
75054;SDS011;63636;44.746;10.488;2023-05-20T01:34:44;15.25;;;10.15;;
75054;SDS011;63636;44.746;10.488;2023-05-20T01:37:11;15.95;;;10.52;;
75054;SDS011;63636;44.746;10.488;2023-05-20T01:39:38;14.40;;;10.52;;
75054;SDS011;63636;44.746;10.488;2023-05-20T01:42:06;13.38;;;10.30;;
75054;SDS011;63636;44.746;10.488;2023-05-20T01:44:32;14.95;;;9.90;;
75054;SDS011;63636;44.746;10.488;2023-05-20T01:46:58;14.27;;;10.45;;
75054;SDS011;63636;44.746;10.488;2023-05-20T01:49:24;14.85;;;9.98;;
75054;SDS011;63636;44.746;10.488;2023-05-20T01:51:50;13.70;;;9.60;;
75054;SDS011;63636;44.746;10.488;2023-05-20T01:54:15;16.08;;;9.70;;
75054;SDS011;63636;44.746;10.488;2023-05-20T01:56:41;15.63;;;10.23;;
75054;SDS011;63636;44.746;10.488;2023-05-20T01:59:06;14.23;;;10.57;;
75054;SDS011;63636;44.746;10.488;2023-05-20T02:01:32;14.80;;;10.13;;
75054;SDS011;63636;44.746;10.488;2023-05-20T02:03:57;14.00;;;10.45;;
75054;SDS011;63636;44.746;10.488;2023-05-20T02:06:23;16.20;;;11.32;;
75054;SDS011;63636;44.746;10.488;2023-05-20T02:08:48;16.08;;;11.27;;
75054;SDS011;63636;44.746;10.488;2023-05-20T02:11:14;14.43;;;11.13;;
75054;SDS011;63636;44.746;10.488;2023-05-20T02:13:42;17.95;;;11.50;;
75054;SDS011;63636;44.746;10.488;2023-05-20T02:16:08;14.55;;;10.60;;
75054;SDS011;63636;44.746;10.488;2023-05-20T02:18:33;15.77;;;11.20;;
75054;SDS011;63636;44.746;10.488;2023-05-20T02:21:03;15.40;;;10.90;;
75054;SDS011;63636;44.746;10.488;2023-05-20T02:23:29;15.98;;;11.20;;
75054;SDS011;63636;44.746;10.488;2023-05-20T02:25:57;15.00;;;11.43;;
75054;SDS011;63636;44.746;10.488;2023-05-20T02:28:22;16.73;;;11.27;;
75054;SDS011;63636;44.746;10.488;2023-05-20T02:30:48;16.63;;;11.23;;
75054;SDS011;63636;44.746;10.488;2023-05-20T02:33:16;15.73;;;11.57;;
75054;SDS011;63636;44.746;10.488;2023-05-20T02:35:42;16.50;;;11.38;;
75054;SDS011;63636;44.746;10.488;2023-05-20T02:38:07;15.88;;;11.15;;
75054;SDS011;63636;44.746;10.488;2023-05-20T02:40:35;15.00;;;11.07;;
75054;SDS011;63636;44.746;10.488;2023-05-20T02:43:01;15.50;;;11.30;;
75054;SDS011;63636;44.746;10.488;2023-05-20T02:45:27;17.65;;;11.68;;
75054;SDS011;63636;44.746;10.488;2023-05-20T02:47:53;17.23;;;11.95;;
75054;SDS011;63636;44.746;10.488;2023-05-20T02:50:18;17.38;;;12.18;;
75054;SDS011;63636;44.746;10.488;2023-05-20T02:52:44;16.50;;;11.50;;
75054;SDS011;63636;44.746;10.488;2023-05-20T02:55:10;17.98;;;11.93;;
75054;SDS011;63636;44.746;10.488;2023-05-20T02:57:36;16.17;;;12.18;;
75054;SDS011;63636;44.746;10.488;2023-05-20T03:00:07;15.70;;;12.07;;
75054;SDS011;63636;44.746;10.488;2023-05-20T03:02:36;15.50;;;11.82;;
75054;SDS011;63636;44.746;10.488;2023-05-20T03:05:01;16.42;;;13.10;;
75054;SDS011;63636;44.746;10.488;2023-05-20T03:07:28;17.60;;;12.23;;
75054;SDS011;63636;44.746;10.488;2023-05-20T03:09:54;17.77;;;12.95;;
75054;SDS011;63636;44.746;10.488;2023-05-20T03:12:20;17.92;;;12.82;;
75054;SDS011;63636;44.746;10.488;2023-05-20T03:14:45;17.77;;;12.38;;
75054;SDS011;63636;44.746;10.488;2023-05-20T03:17:12;18.15;;;11.70;;
75054;SDS011;63636;44.746;10.488;2023-05-20T03:19:38;17.90;;;12.75;;
75054;SDS011;63636;44.746;10.488;2023-05-20T03:22:04;15.85;;;11.85;;
75054;SDS011;63636;44.746;10.488;2023-05-20T03:24:31;16.33;;;12.02;;
75054;SDS011;63636;44.746;10.488;2023-05-20T03:26:56;17.38;;;13.13;;
75054;SDS011;63636;44.746;10.488;2023-05-20T03:29:22;17.88;;;12.40;;
75054;SDS011;63636;44.746;10.488;2023-05-20T03:31:47;17.75;;;13.10;;
75054;SDS011;63636;44.746;10.488;2023-05-20T03:34:13;17.35;;;12.77;;
75054;SDS011;63636;44.746;10.488;2023-05-20T03:36:39;18.98;;;13.18;;
75054;SDS011;63636;44.746;10.488;2023-05-20T03:39:04;17.33;;;12.95;;
75054;SDS011;63636;44.746;10.488;2023-05-20T03:41:31;17.52;;;12.85;;
75054;SDS011;63636;44.746;10.488;2023-05-20T03:43:57;18.63;;;13.95;;
75054;SDS011;63636;44.746;10.488;2023-05-20T03:46:23;22.45;;;13.65;;
75054;SDS011;63636;44.746;10.488;2023-05-20T03:48:49;18.90;;;13.35;;
75054;SDS011;63636;44.746;10.488;2023-05-20T03:51:15;19.08;;;13.38;;
75054;SDS011;63636;44.746;10.488;2023-05-20T03:53:41;19.40;;;13.52;;
75054;SDS011;63636;44.746;10.488;2023-05-20T03:56:06;18.83;;;14.45;;
75054;SDS011;63636;44.746;10.488;2023-05-20T03:58:33;20.33;;;14.18;;
75054;SDS011;63636;44.746;10.488;2023-05-20T04:01:00;18.75;;;14.00;;
75054;SDS011;63636;44.746;10.488;2023-05-20T04:03:26;20.48;;;14.65;;
75054;SDS011;63636;44.746;10.488;2023-05-20T04:05:53;21.67;;;14.82;;
75054;SDS011;63636;44.746;10.488;2023-05-20T04:08:20;21.33;;;15.57;;
75054;SDS011;63636;44.746;10.488;2023-05-20T04:10:46;21.15;;;15.00;;
75054;SDS011;63636;44.746;10.488;2023-05-20T04:13:12;22.42;;;15.20;;
75054;SDS011;63636;44.746;10.488;2023-05-20T04:15:38;21.23;;;14.57;;
75054;SDS011;63636;44.746;10.488;2023-05-20T04:18:04;21.75;;;15.20;;
75054;SDS011;63636;44.746;10.488;2023-05-20T04:20:33;21.17;;;15.30;;
75054;SDS011;63636;44.746;10.488;2023-05-20T04:22:59;21.73;;;15.07;;
75054;SDS011;63636;44.746;10.488;2023-05-20T04:25:25;23.75;;;15.45;;
75054;SDS011;63636;44.746;10.488;2023-05-20T04:27:51;23.95;;;16.05;;
75054;SDS011;63636;44.746;10.488;2023-05-20T04:30:18;23.27;;;15.98;;
75054;SDS011;63636;44.746;10.488;2023-05-20T04:32:46;20.88;;;15.15;;
75054;SDS011;63636;44.746;10.488;2023-05-20T04:35:13;23.77;;;15.80;;
75054;SDS011;63636;44.746;10.488;2023-05-20T04:37:41;21.25;;;15.68;;
75054;SDS011;63636;44.746;10.488;2023-05-20T04:40:09;23.23;;;15.98;;
75054;SDS011;63636;44.746;10.488;2023-05-20T04:42:36;21.65;;;15.55;;
75054;SDS011;63636;44.746;10.488;2023-05-20T04:45:03;23.73;;;16.73;;
75054;SDS011;63636;44.746;10.488;2023-05-20T04:47:31;21.90;;;16.10;;
75054;SDS011;63636;44.746;10.488;2023-05-20T04:50:10;24.08;;;17.60;;
75054;SDS011;63636;44.746;10.488;2023-05-20T04:52:36;22.35;;;16.65;;
75054;SDS011;63636;44.746;10.488;2023-05-20T04:55:05;24.48;;;17.30;;
75054;SDS011;63636;44.746;10.488;2023-05-20T04:57:30;22.63;;;16.63;;
75054;SDS011;63636;44.746;10.488;2023-05-20T04:59:59;24.10;;;17.27;;
75054;SDS011;63636;44.746;10.488;2023-05-20T05:02:25;26.80;;;17.00;;
75054;SDS011;63636;44.746;10.488;2023-05-20T05:04:52;25.10;;;18.15;;
75054;SDS011;63636;44.746;10.488;2023-05-20T05:07:18;22.42;;;16.65;;
75054;SDS011;63636;44.746;10.488;2023-05-20T05:09:43;23.23;;;16.63;;
75054;SDS011;63636;44.746;10.488;2023-05-20T05:12:09;23.50;;;16.80;;
75054;SDS011;63636;44.746;10.488;2023-05-20T05:14:34;24.02;;;16.60;;
75054;SDS011;63636;44.746;10.488;2023-05-20T05:17:00;25.33;;;16.98;;
75054;SDS011;63636;44.746;10.488;2023-05-20T05:19:27;21.52;;;15.63;;
75054;SDS011;63636;44.746;10.488;2023-05-20T05:21:52;22.95;;;15.93;;
75054;SDS011;63636;44.746;10.488;2023-05-20T05:24:18;24.05;;;16.23;;
75054;SDS011;63636;44.746;10.488;2023-05-20T05:26:44;24.73;;;17.08;;
75054;SDS011;63636;44.746;10.488;2023-05-20T05:29:09;24.70;;;16.98;;
75054;SDS011;63636;44.746;10.488;2023-05-20T05:31:35;25.73;;;17.48;;
75054;SDS011;63636;44.746;10.488;2023-05-20T05:34:00;28.27;;;18.88;;
75054;SDS011;63636;44.746;10.488;2023-05-20T05:36:26;25.90;;;17.40;;
75054;SDS011;63636;44.746;10.488;2023-05-20T05:38:52;23.60;;;16.25;;
75054;SDS011;63636;44.746;10.488;2023-05-20T05:41:18;25.25;;;17.02;;
75054;SDS011;63636;44.746;10.488;2023-05-20T05:43:44;24.38;;;16.33;;
75054;SDS011;63636;44.746;10.488;2023-05-20T05:46:10;22.10;;;15.95;;
75054;SDS011;63636;44.746;10.488;2023-05-20T05:48:36;21.58;;;15.43;;
75054;SDS011;63636;44.746;10.488;2023-05-20T05:51:03;21.00;;;14.95;;
75054;SDS011;63636;44.746;10.488;2023-05-20T05:53:29;21.08;;;14.98;;
75054;SDS011;63636;44.746;10.488;2023-05-20T05:55:55;20.67;;;14.20;;
75054;SDS011;63636;44.746;10.488;2023-05-20T05:58:21;21.67;;;14.75;;
75054;SDS011;63636;44.746;10.488;2023-05-20T06:00:49;21.52;;;14.75;;
75054;SDS011;63636;44.746;10.488;2023-05-20T06:03:15;20.45;;;14.75;;
75054;SDS011;63636;44.746;10.488;2023-05-20T06:05:43;23.05;;;14.95;;
75054;SDS011;63636;44.746;10.488;2023-05-20T06:08:09;21.38;;;13.95;;
75054;SDS011;63636;44.746;10.488;2023-05-20T06:10:35;20.58;;;14.38;;
75054;SDS011;63636;44.746;10.488;2023-05-20T06:13:01;24.27;;;15.48;;
75054;SDS011;63636;44.746;10.488;2023-05-20T06:15:27;23.67;;;16.52;;
75054;SDS011;63636;44.746;10.488;2023-05-20T06:17:52;22.48;;;16.10;;
75054;SDS011;63636;44.746;10.488;2023-05-20T06:20:19;23.05;;;16.60;;
75054;SDS011;63636;44.746;10.488;2023-05-20T06:22:44;22.60;;;16.13;;
75054;SDS011;63636;44.746;10.488;2023-05-20T06:25:11;24.17;;;15.88;;
75054;SDS011;63636;44.746;10.488;2023-05-20T06:27:37;21.05;;;15.20;;
75054;SDS011;63636;44.746;10.488;2023-05-20T06:30:05;23.98;;;15.55;;
75054;SDS011;63636;44.746;10.488;2023-05-20T06:32:30;22.60;;;15.02;;
75054;SDS011;63636;44.746;10.488;2023-05-20T06:34:57;20.40;;;14.48;;
75054;SDS011;63636;44.746;10.488;2023-05-20T06:37:22;23.10;;;15.02;;
75054;SDS011;63636;44.746;10.488;2023-05-20T06:39:52;20.98;;;14.10;;
75054;SDS011;63636;44.746;10.488;2023-05-20T06:42:19;20.38;;;13.90;;
75054;SDS011;63636;44.746;10.488;2023-05-20T06:44:48;20.38;;;13.52;;
75054;SDS011;63636;44.746;10.488;2023-05-20T06:47:20;23.75;;;14.52;;
75054;SDS011;63636;44.746;10.488;2023-05-20T06:49:47;20.05;;;14.13;;
75054;SDS011;63636;44.746;10.488;2023-05-20T06:52:14;21.73;;;14.70;;
75054;SDS011;63636;44.746;10.488;2023-05-20T06:54:40;19.50;;;13.27;;
75054;SDS011;63636;44.746;10.488;2023-05-20T06:57:08;18.67;;;12.55;;
75054;SDS011;63636;44.746;10.488;2023-05-20T06:59:37;19.00;;;12.35;;
75054;SDS011;63636;44.746;10.488;2023-05-20T07:02:06;19.50;;;12.73;;
75054;SDS011;63636;44.746;10.488;2023-05-20T07:04:32;19.60;;;13.07;;
75054;SDS011;63636;44.746;10.488;2023-05-20T07:06:58;19.38;;;13.07;;
75054;SDS011;63636;44.746;10.488;2023-05-20T07:09:23;20.20;;;13.05;;
75054;SDS011;63636;44.746;10.488;2023-05-20T07:11:52;21.08;;;12.23;;
75054;SDS011;63636;44.746;10.488;2023-05-20T07:14:18;17.70;;;11.88;;
75054;SDS011;63636;44.746;10.488;2023-05-20T07:16:45;16.85;;;11.07;;
75054;SDS011;63636;44.746;10.488;2023-05-20T07:19:11;17.88;;;11.25;;
75054;SDS011;63636;44.746;10.488;2023-05-20T07:21:37;16.67;;;10.57;;
75054;SDS011;63636;44.746;10.488;2023-05-20T07:24:22;15.65;;;10.60;;
75054;SDS011;63636;44.746;10.488;2023-05-20T07:26:48;14.73;;;9.50;;
75054;SDS011;63636;44.746;10.488;2023-05-20T07:29:14;14.43;;;9.65;;
75054;SDS011;63636;44.746;10.488;2023-05-20T07:31:40;15.25;;;9.80;;
75054;SDS011;63636;44.746;10.488;2023-05-20T07:34:05;15.65;;;9.85;;
75054;SDS011;63636;44.746;10.488;2023-05-20T07:36:31;15.80;;;9.55;;
75054;SDS011;63636;44.746;10.488;2023-05-20T07:39:01;14.75;;;9.80;;
75054;SDS011;63636;44.746;10.488;2023-05-20T07:41:28;16.98;;;9.90;;
75054;SDS011;63636;44.746;10.488;2023-05-20T07:43:53;16.48;;;10.05;;
75054;SDS011;63636;44.746;10.488;2023-05-20T07:46:19;14.77;;;9.57;;
75054;SDS011;63636;44.746;10.488;2023-05-20T07:48:45;14.18;;;9.52;;
75054;SDS011;63636;44.746;10.488;2023-05-20T07:51:11;16.77;;;9.80;;
75054;SDS011;63636;44.746;10.488;2023-05-20T07:53:37;15.40;;;9.60;;
75054;SDS011;63636;44.746;10.488;2023-05-20T07:56:03;16.77;;;10.55;;
75054;SDS011;63636;44.746;10.488;2023-05-20T07:58:30;15.77;;;10.07;;
75054;SDS011;63636;44.746;10.488;2023-05-20T08:00:56;16.75;;;9.68;;
75054;SDS011;63636;44.746;10.488;2023-05-20T08:03:21;16.73;;;10.27;;
75054;SDS011;63636;44.746;10.488;2023-05-20T08:08:20;15.38;;;9.93;;
75054;SDS011;63636;44.746;10.488;2023-05-20T08:10:53;16.33;;;9.88;;
75054;SDS011;63636;44.746;10.488;2023-05-20T08:13:22;16.27;;;10.10;;
75054;SDS011;63636;44.746;10.488;2023-05-20T08:15:48;17.83;;;10.63;;
75054;SDS011;63636;44.746;10.488;2023-05-20T08:18:14;16.10;;;10.57;;
75054;SDS011;63636;44.746;10.488;2023-05-20T08:20:40;15.48;;;10.40;;
75054;SDS011;63636;44.746;10.488;2023-05-20T08:23:07;18.42;;;11.02;;
75054;SDS011;63636;44.746;10.488;2023-05-20T08:25:32;14.80;;;10.32;;
75054;SDS011;63636;44.746;10.488;2023-05-20T08:28:00;16.10;;;10.55;;
75054;SDS011;63636;44.746;10.488;2023-05-20T08:30:26;15.85;;;10.68;;
75054;SDS011;63636;44.746;10.488;2023-05-20T08:32:52;16.48;;;11.50;;
75054;SDS011;63636;44.746;10.488;2023-05-20T08:35:19;18.63;;;12.02;;
75054;SDS011;63636;44.746;10.488;2023-05-20T08:37:44;18.67;;;11.02;;
75054;SDS011;63636;44.746;10.488;2023-05-20T08:40:10;15.80;;;10.07;;
75054;SDS011;63636;44.746;10.488;2023-05-20T08:42:39;16.25;;;10.70;;
75054;SDS011;63636;44.746;10.488;2023-05-20T08:45:05;17.75;;;10.73;;
75054;SDS011;63636;44.746;10.488;2023-05-20T08:47:32;17.27;;;11.30;;
75054;SDS011;63636;44.746;10.488;2023-05-20T08:49:58;15.77;;;10.40;;
75054;SDS011;63636;44.746;10.488;2023-05-20T08:52:27;15.88;;;10.90;;
75054;SDS011;63636;44.746;10.488;2023-05-20T08:54:53;15.40;;;10.57;;
75054;SDS011;63636;44.746;10.488;2023-05-20T08:57:20;17.35;;;11.30;;
75054;SDS011;63636;44.746;10.488;2023-05-20T08:59:46;17.75;;;10.63;;
75054;SDS011;63636;44.746;10.488;2023-05-20T09:02:12;17.05;;;10.65;;
75054;SDS011;63636;44.746;10.488;2023-05-20T09:04:38;15.27;;;10.68;;
75054;SDS011;63636;44.746;10.488;2023-05-20T09:07:03;16.70;;;10.60;;
75054;SDS011;63636;44.746;10.488;2023-05-20T09:09:30;17.95;;;11.68;;
75054;SDS011;63636;44.746;10.488;2023-05-20T09:11:56;16.58;;;10.77;;
75054;SDS011;63636;44.746;10.488;2023-05-20T09:14:22;15.80;;;10.48;;
75054;SDS011;63636;44.746;10.488;2023-05-20T09:16:51;15.52;;;10.52;;
75054;SDS011;63636;44.746;10.488;2023-05-20T09:19:17;16.85;;;10.90;;
75054;SDS011;63636;44.746;10.488;2023-05-20T09:21:42;16.35;;;10.98;;
75054;SDS011;63636;44.746;10.488;2023-05-20T09:24:11;18.88;;;11.60;;
75054;SDS011;63636;44.746;10.488;2023-05-20T09:26:37;18.67;;;12.32;;
75054;SDS011;63636;44.746;10.488;2023-05-20T09:29:03;18.45;;;12.50;;
75054;SDS011;63636;44.746;10.488;2023-05-20T09:31:29;19.58;;;12.40;;
75054;SDS011;63636;44.746;10.488;2023-05-20T09:33:55;18.83;;;12.43;;
75054;SDS011;63636;44.746;10.488;2023-05-20T09:36:27;18.20;;;11.73;;
75054;SDS011;63636;44.746;10.488;2023-05-20T09:38:55;18.75;;;12.35;;
75054;SDS011;63636;44.746;10.488;2023-05-20T09:41:23;19.20;;;12.63;;
75054;SDS011;63636;44.746;10.488;2023-05-20T09:43:52;18.02;;;12.32;;
75054;SDS011;63636;44.746;10.488;2023-05-20T09:46:18;16.23;;;11.57;;
75054;SDS011;63636;44.746;10.488;2023-05-20T09:48:44;17.88;;;11.90;;
75054;SDS011;63636;44.746;10.488;2023-05-20T09:51:11;17.30;;;11.70;;
75054;SDS011;63636;44.746;10.488;2023-05-20T09:53:37;16.95;;;11.82;;
75054;SDS011;63636;44.746;10.488;2023-05-20T09:56:03;16.90;;;11.70;;
75054;SDS011;63636;44.746;10.488;2023-05-20T09:58:29;17.70;;;12.15;;
75054;SDS011;63636;44.746;10.488;2023-05-20T10:00:55;17.45;;;12.00;;
75054;SDS011;63636;44.746;10.488;2023-05-20T10:03:21;16.83;;;11.70;;
75054;SDS011;63636;44.746;10.488;2023-05-20T10:05:56;16.50;;;11.32;;
75054;SDS011;63636;44.746;10.488;2023-05-20T10:10:57;15.80;;;11.18;;
75054;SDS011;63636;44.746;10.488;2023-05-20T10:18:57;17.75;;;12.20;;
75054;SDS011;63636;44.746;10.488;2023-05-20T10:21:25;17.35;;;11.65;;
75054;SDS011;63636;44.746;10.488;2023-05-20T10:23:50;17.33;;;11.30;;
75054;SDS011;63636;44.746;10.488;2023-05-20T10:26:16;18.13;;;11.55;;
75054;SDS011;63636;44.746;10.488;2023-05-20T10:28:42;15.85;;;10.82;;
75054;SDS011;63636;44.746;10.488;2023-05-20T10:31:19;15.18;;;10.50;;
75054;SDS011;63636;44.746;10.488;2023-05-20T10:33:45;15.68;;;11.25;;
75054;SDS011;63636;44.746;10.488;2023-05-20T10:36:21;16.25;;;11.13;;
75054;SDS011;63636;44.746;10.488;2023-05-20T10:38:54;18.45;;;11.07;;
75054;SDS011;63636;44.746;10.488;2023-05-20T10:41:20;17.65;;;11.75;;
75054;SDS011;63636;44.746;10.488;2023-05-20T10:43:57;16.65;;;11.80;;
75054;SDS011;63636;44.746;10.488;2023-05-20T10:46:23;16.52;;;11.48;;
75054;SDS011;63636;44.746;10.488;2023-05-20T10:48:49;18.63;;;11.35;;
75054;SDS011;63636;44.746;10.488;2023-05-20T10:51:14;17.30;;;11.80;;
75054;SDS011;63636;44.746;10.488;2023-05-20T10:53:44;16.17;;;11.30;;
75054;SDS011;63636;44.746;10.488;2023-05-20T10:56:16;18.00;;;11.88;;
75054;SDS011;63636;44.746;10.488;2023-05-20T10:58:48;19.92;;;12.40;;
75054;SDS011;63636;44.746;10.488;2023-05-20T11:01:15;17.98;;;12.00;;
75054;SDS011;63636;44.746;10.488;2023-05-20T11:03:40;17.15;;;11.73;;
75054;SDS011;63636;44.746;10.488;2023-05-20T11:06:11;17.70;;;11.80;;
75054;SDS011;63636;44.746;10.488;2023-05-20T11:08:36;18.05;;;12.40;;
75054;SDS011;63636;44.746;10.488;2023-05-20T11:11:02;20.38;;;12.77;;
75054;SDS011;63636;44.746;10.488;2023-05-20T11:13:28;18.55;;;12.32;;
75054;SDS011;63636;44.746;10.488;2023-05-20T11:15:55;17.65;;;12.13;;
75054;SDS011;63636;44.746;10.488;2023-05-20T11:18:20;19.80;;;12.23;;
75054;SDS011;63636;44.746;10.488;2023-05-20T11:20:46;17.02;;;11.52;;
75054;SDS011;63636;44.746;10.488;2023-05-20T11:23:12;17.75;;;12.48;;
75054;SDS011;63636;44.746;10.488;2023-05-20T11:25:38;19.40;;;13.02;;
75054;SDS011;63636;44.746;10.488;2023-05-20T11:28:07;19.48;;;12.73;;
75054;SDS011;63636;44.746;10.488;2023-05-20T11:33:28;19.92;;;13.63;;
75054;SDS011;63636;44.746;10.488;2023-05-20T11:35:55;19.08;;;13.00;;
75054;SDS011;63636;44.746;10.488;2023-05-20T11:38:21;21.05;;;13.50;;
75054;SDS011;63636;44.746;10.488;2023-05-20T11:40:54;20.77;;;13.07;;
75054;SDS011;63636;44.746;10.488;2023-05-20T11:43:22;19.10;;;13.05;;
75054;SDS011;63636;44.746;10.488;2023-05-20T11:45:53;19.88;;;12.70;;
75054;SDS011;63636;44.746;10.488;2023-05-20T11:48:19;17.65;;;12.45;;
75054;SDS011;63636;44.746;10.488;2023-05-20T11:50:45;21.60;;;13.68;;
75054;SDS011;63636;44.746;10.488;2023-05-20T11:53:18;20.35;;;13.73;;
75054;SDS011;63636;44.746;10.488;2023-05-20T11:55:47;18.90;;;12.90;;
75054;SDS011;63636;44.746;10.488;2023-05-20T11:58:20;17.73;;;12.18;;
75054;SDS011;63636;44.746;10.488;2023-05-20T12:03:11;17.48;;;11.68;;
75054;SDS011;63636;44.746;10.488;2023-05-20T12:05:37;17.58;;;12.40;;
75054;SDS011;63636;44.746;10.488;2023-05-20T12:08:03;18.05;;;11.85;;
75054;SDS011;63636;44.746;10.488;2023-05-20T12:10:29;17.75;;;12.25;;
75054;SDS011;63636;44.746;10.488;2023-05-20T12:12:55;18.27;;;12.30;;
75054;SDS011;63636;44.746;10.488;2023-05-20T12:15:21;19.70;;;12.35;;
75054;SDS011;63636;44.746;10.488;2023-05-20T12:17:47;18.02;;;11.90;;
75054;SDS011;63636;44.746;10.488;2023-05-20T12:20:13;17.83;;;12.23;;
75054;SDS011;63636;44.746;10.488;2023-05-20T12:22:39;17.48;;;12.23;;
75054;SDS011;63636;44.746;10.488;2023-05-20T12:25:05;16.50;;;11.45;;
75054;SDS011;63636;44.746;10.488;2023-05-20T12:27:31;18.38;;;11.98;;
75054;SDS011;63636;44.746;10.488;2023-05-20T12:29:58;17.75;;;11.80;;
75054;SDS011;63636;44.746;10.488;2023-05-20T12:32:24;21.15;;;12.18;;
75054;SDS011;63636;44.746;10.488;2023-05-20T12:34:49;17.90;;;12.85;;
75054;SDS011;63636;44.746;10.488;2023-05-20T12:37:15;18.85;;;12.88;;
75054;SDS011;63636;44.746;10.488;2023-05-20T12:39:40;20.25;;;12.98;;
75054;SDS011;63636;44.746;10.488;2023-05-20T12:42:06;17.88;;;12.57;;
75054;SDS011;63636;44.746;10.488;2023-05-20T12:44:34;17.00;;;12.00;;
75054;SDS011;63636;44.746;10.488;2023-05-20T12:47:00;17.65;;;12.43;;
75054;SDS011;63636;44.746;10.488;2023-05-20T12:49:26;18.15;;;12.02;;
75054;SDS011;63636;44.746;10.488;2023-05-20T12:51:51;18.17;;;12.70;;
75054;SDS011;63636;44.746;10.488;2023-05-20T12:54:18;19.75;;;13.13;;
75054;SDS011;63636;44.746;10.488;2023-05-20T12:56:45;18.55;;;12.95;;
75054;SDS011;63636;44.746;10.488;2023-05-20T12:59:12;19.50;;;13.02;;
75054;SDS011;63636;44.746;10.488;2023-05-20T13:01:37;19.80;;;13.32;;
75054;SDS011;63636;44.746;10.488;2023-05-20T13:04:03;18.42;;;13.65;;
75054;SDS011;63636;44.746;10.488;2023-05-20T13:12:50;20.38;;;13.40;;
75054;SDS011;63636;44.746;10.488;2023-05-20T13:15:15;19.08;;;13.23;;
75054;SDS011;63636;44.746;10.488;2023-05-20T13:17:41;20.92;;;13.73;;
75054;SDS011;63636;44.746;10.488;2023-05-20T13:20:07;20.33;;;13.15;;
75054;SDS011;63636;44.746;10.488;2023-05-20T13:22:33;19.00;;;13.35;;
75054;SDS011;63636;44.746;10.488;2023-05-20T13:24:59;18.38;;;13.07;;
75054;SDS011;63636;44.746;10.488;2023-05-20T13:27:25;18.88;;;13.23;;
75054;SDS011;63636;44.746;10.488;2023-05-20T13:29:51;19.50;;;14.00;;
75054;SDS011;63636;44.746;10.488;2023-05-20T13:32:16;18.17;;;13.20;;
75054;SDS011;63636;44.746;10.488;2023-05-20T13:34:42;17.00;;;12.73;;
75054;SDS011;63636;44.746;10.488;2023-05-20T13:37:07;17.83;;;12.70;;
75054;SDS011;63636;44.746;10.488;2023-05-20T13:39:33;19.48;;;13.07;;
75054;SDS011;63636;44.746;10.488;2023-05-20T13:42:08;17.98;;;12.60;;
75054;SDS011;63636;44.746;10.488;2023-05-20T13:44:54;19.00;;;13.23;;
75054;SDS011;63636;44.746;10.488;2023-05-20T13:47:19;19.00;;;13.52;;
75054;SDS011;63636;44.746;10.488;2023-05-20T13:49:45;18.52;;;13.48;;
75054;SDS011;63636;44.746;10.488;2023-05-20T13:52:11;18.98;;;13.32;;
75054;SDS011;63636;44.746;10.488;2023-05-20T13:54:36;21.75;;;13.73;;
75054;SDS011;63636;44.746;10.488;2023-05-20T13:57:02;19.60;;;13.25;;
75054;SDS011;63636;44.746;10.488;2023-05-20T13:59:31;19.02;;;13.32;;
75054;SDS011;63636;44.746;10.488;2023-05-20T14:01:57;19.00;;;13.52;;
75054;SDS011;63636;44.746;10.488;2023-05-20T14:04:23;18.35;;;13.98;;
75054;SDS011;63636;44.746;10.488;2023-05-20T14:06:49;20.05;;;13.35;;
75054;SDS011;63636;44.746;10.488;2023-05-20T14:09:15;19.02;;;13.13;;
75054;SDS011;63636;44.746;10.488;2023-05-20T14:11:40;21.67;;;16.25;;
75054;SDS011;63636;44.746;10.488;2023-05-20T14:14:06;24.67;;;19.70;;
75054;SDS011;63636;44.746;10.488;2023-05-20T14:16:32;24.88;;;18.33;;
75054;SDS011;63636;44.746;10.488;2023-05-20T14:18:57;19.65;;;14.77;;
75054;SDS011;63636;44.746;10.488;2023-05-20T14:21:23;21.27;;;15.70;;
75054;SDS011;63636;44.746;10.488;2023-05-20T14:23:48;21.08;;;15.40;;
75054;SDS011;63636;44.746;10.488;2023-05-20T14:26:14;25.17;;;15.40;;
75054;SDS011;63636;44.746;10.488;2023-05-20T14:28:40;20.38;;;14.85;;
75054;SDS011;63636;44.746;10.488;2023-05-20T14:31:05;21.63;;;15.77;;